Time;durP1;ratioP1;P1;durP2;ratioP2;P2;SDS_P1;SDS_P2;PMS_P1;PMS_P2;Temp;Humidity;BMP_temperature;BMP_pressure;BME280_temperature;BME280_humidity;BME280_pressure;Samples;Min_cycle;Max_cycle;Signal;HPM_P1;HPM_P2
2022/09/20 00:01:23;;;;;;;0.00;0.00;;;;;;;10.27;90.12;95827.91;4396775;32;20195;-63
2022/09/20 00:04:14;;;;;;;0.10;0.10;;;;;;;10.38;90.53;95833.13;4363455;32;20243;-63
2022/09/20 00:06:41;;;;;;;1.33;0.20;;;;;;;10.38;90.38;95833.13;4365187;32;20207;-63
2022/09/20 00:09:07;;;;;;;0.07;0.07;;;;;;;10.39;89.85;95832.06;4395703;32;20189;-63
2022/09/20 00:11:38;;;;;;;0.00;0.00;;;;;;;10.17;91.31;95835.94;4387711;32;20188;-63
2022/09/20 00:14:07;;;;;;;0.27;0.27;;;;;;;10.03;92.26;95837.59;4389540;32;20185;-63
2022/09/20 00:16:37;;;;;;;0.07;0.07;;;;;;;9.97;93.16;95822.84;4377138;32;20187;-63
2022/09/20 00:19:05;;;;;;;0.33;0.33;;;;;;;10.24;93.14;95814.41;4408105;32;20256;-63
2022/09/20 00:21:36;;;;;;;0.43;0.40;;;;;;;10.18;92.71;95808.34;4378416;32;20193;-63
2022/09/20 00:24:06;;;;;;;0.10;0.10;;;;;;;10.04;93.05;95812.69;4397019;32;20192;-63
2022/09/20 00:26:32;;;;;;;0.17;0.17;;;;;;;10.00;92.83;95817.75;4397309;32;20195;-63
2022/09/20 00:28:59;;;;;;;0.00;0.00;;;;;;;9.95;93.00;95817.81;4376439;32;20195;-63
2022/09/20 00:31:24;;;;;;;0.20;0.20;;;;;;;9.93;93.84;95816.50;4377062;32;20193;-63
2022/09/20 00:36:43;;;;;;;0.10;0.10;;;;;;;10.09;93.56;95809.22;4407792;32;23983;-63
2022/09/20 00:39:11;;;;;;;0.00;0.00;;;;;;;10.04;93.75;95815.34;4364608;32;20224;-63
2022/09/20 00:41:38;;;;;;;1.43;0.60;;;;;;;10.10;93.70;95816.87;4378790;32;20248;-64
2022/09/20 00:44:46;;;;;;;0.20;0.20;;;;;;;10.13;93.28;95819.00;4406849;32;20203;-63
2022/09/20 00:47:44;;;;;;;0.30;0.30;;;;;;;9.93;93.97;95805.91;4337007;32;20285;-63
2022/09/20 00:50:34;;;;;;;0.10;0.10;;;;;;;9.93;93.88;95816.50;4353970;32;20283;-63
2022/09/20 00:53:31;;;;;;;0.20;0.20;;;;;;;10.07;93.21;95812.12;4381733;32;20220;-63
2022/09/20 00:56:01;;;;;;;0.10;0.10;;;;;;;10.13;93.12;95819.00;4410231;32;20222;-63
2022/09/20 00:58:30;;;;;;;0.10;0.10;;;;;;;10.19;92.88;95814.44;4391738;32;20199;-63
2022/09/20 01:00:59;;;;;;;0.30;0.30;;;;;;;10.00;93.05;95814.31;4386700;32;20199;-63
2022/09/20 01:03:30;;;;;;;0.13;0.13;;;;;;;10.03;93.67;95816.41;4413735;32;20207;-63
2022/09/20 01:05:58;;;;;;;0.10;0.10;;;;;;;10.03;93.37;95824.34;4380253;32;20235;-63
2022/09/20 01:08:24;;;;;;;0.23;0.23;;;;;;;10.08;93.33;95824.31;4377425;32;20192;-64
2022/09/20 01:10:51;;;;;;;0.00;0.00;;;;;;;10.12;93.26;95821.91;4381496;32;20202;-61
2022/09/20 01:13:18;;;;;;;0.20;0.20;;;;;;;10.14;92.72;95820.56;4369506;32;20200;-60
2022/09/20 01:15:48;;;;;;;0.50;0.50;;;;;;;10.05;93.36;95808.97;4392895;32;20184;-61
2022/09/20 01:18:17;;;;;;;1.17;0.63;;;;;;;10.06;93.33;95810.56;4391087;32;20202;-61
2022/09/20 01:20:45;;;;;;;0.30;0.30;;;;;;;9.96;94.32;95815.94;4385026;32;20312;-60
2022/09/20 01:23:16;;;;;;;0.10;0.10;;;;;;;9.85;95.53;95819.72;4385467;32;20218;-61
2022/09/20 01:26:25;;;;;;;0.33;0.33;;;;;;;9.85;95.71;95814.41;4393566;32;20206;-60
2022/09/20 01:29:02;;;;;;;0.03;0.03;;;;;;;9.96;95.40;95811.44;4382807;32;20203;-61
2022/09/20 01:31:33;;;;;;;0.10;0.10;;;;;;;9.85;95.87;95806.47;4370830;32;20188;-60
2022/09/20 01:34:42;;;;;;;0.10;0.10;;;;;;;9.91;95.75;95806.16;4376766;32;20288;-61
2022/09/20 01:37:25;;;;;;;0.10;0.10;;;;;;;9.84;95.82;95803.03;4364506;32;20185;-61
2022/09/20 01:40:38;;;;;;;0.17;0.17;;;;;;;10.03;94.86;95805.00;4390363;32;20295;-61
2022/09/20 01:43:34;;;;;;;0.07;0.07;;;;;;;10.13;94.72;95784.53;4362078;32;20185;-60
2022/09/20 01:46:23;;;;;;;0.20;0.20;;;;;;;9.98;94.80;95792.59;4392809;32;20243;-60
2022/09/20 01:49:16;;;;;;;0.23;0.23;;;;;;;9.95;94.71;95798.47;4346659;32;20206;-60
2022/09/20 01:52:03;;;;;;;0.10;0.10;;;;;;;9.93;95.41;95796.09;4391700;32;20243;-60
2022/09/20 01:55:19;;;;;;;0.20;0.20;;;;;;;9.84;96.00;95794.28;4369373;32;20265;-60
2022/09/20 01:58:10;;;;;;;0.20;0.20;;;;;;;9.82;95.77;95793.78;4364475;32;20200;-60
2022/09/20 02:01:14;;;;;;;0.27;0.20;;;;;;;9.99;95.65;95783.56;4417470;32;20282;-60
2022/09/20 02:04:02;;;;;;;0.40;0.20;;;;;;;9.90;95.35;95790.53;4389483;32;20222;-60
2022/09/20 02:06:56;;;;;;;1.20;0.67;;;;;;;9.87;95.48;95783.94;4382595;32;20200;-60
2022/09/20 02:09:51;;;;;;;0.03;0.03;;;;;;;9.89;95.26;95789.75;4389723;32;20211;-60
2022/09/20 02:12:54;;;;;;;0.20;0.20;;;;;;;9.87;95.16;95778.63;4394727;32;20263;-60
2022/09/20 02:15:40;;;;;;;0.30;0.30;;;;;;;9.95;94.36;95782.56;4381575;32;20192;-61
2022/09/20 02:18:37;;;;;;;0.10;0.10;;;;;;;9.85;94.63;95779.97;4381082;32;20211;-60
2022/09/20 02:21:04;;;;;;;0.20;0.20;;;;;;;9.90;94.89;95783.38;4391202;32;20196;-61
2022/09/20 02:24:08;;;;;;;0.10;0.10;;;;;;;10.03;94.39;95781.94;4399564;32;20255;-61
2022/09/20 02:27:17;;;;;;;0.20;0.20;;;;;;;10.10;93.85;95779.78;4374977;32;20192;-60
2022/09/20 02:30:05;;;;;;;0.30;0.30;;;;;;;9.96;94.37;95778.84;4371694;32;20268;-63
2022/09/20 02:33:16;;;;;;;0.30;0.30;;;;;;;10.06;93.95;95778.75;4378549;32;20206;-63
2022/09/20 02:35:59;;;;;;;3.70;0.87;;;;;;;10.03;94.11;95789.09;4347014;32;20230;-63
2022/09/20 02:38:43;;;;;;;1.37;0.80;;;;;;;9.90;94.59;95779.94;4392239;32;20202;-63
2022/09/20 02:41:45;;;;;;;2.73;0.53;;;;;;;9.92;93.84;95788.41;4389205;32;20217;-63
2022/09/20 02:44:41;;;;;;;0.50;0.50;;;;;;;10.00;94.44;95791.25;4362483;32;20185;-64
2022/09/20 02:47:42;;;;;;;0.13;0.13;;;;;;;9.98;94.83;95797.88;4388481;32;20192;-63
2022/09/20 02:50:37;;;;;;;0.00;0.00;;;;;;;9.86;94.73;95787.66;4395243;32;20277;-63
2022/09/20 02:53:45;;;;;;;1.13;0.70;;;;;;;9.94;94.45;95788.94;4420560;32;20203;-63
2022/09/20 02:56:41;;;;;;;0.43;0.43;;;;;;;10.09;93.20;95794.09;4380062;32;20196;-63
2022/09/20 02:59:25;;;;;;;0.37;0.37;;;;;;;9.95;93.73;95793.16;4381932;32;20200;-63
2022/09/20 03:02:25;;;;;;;0.20;0.20;;;;;;;9.86;94.13;95794.81;4380464;32;20210;-63
2022/09/20 03:05:40;;;;;;;0.33;0.33;;;;;;;9.91;94.45;95792.13;4390759;32;20184;-63
2022/09/20 03:08:44;;;;;;;0.50;0.50;;;;;;;10.00;94.07;95790.44;4391008;32;20221;-63
2022/09/20 03:12:07;;;;;;;0.40;0.40;;;;;;;9.94;94.20;95796.88;4388829;32;20184;-63
2022/09/20 03:15:01;;;;;;;0.23;0.23;;;;;;;10.14;93.50;95786.09;4351531;32;20199;-63
2022/09/20 03:17:51;;;;;;;0.30;0.30;;;;;;;9.92;93.77;95791.06;4311631;32;20245;-63
2022/09/20 03:20:42;;;;;;;0.50;0.50;;;;;;;9.92;93.68;95793.72;4359715;32;20240;-63
2022/09/20 03:23:14;;;;;;;0.17;0.17;;;;;;;9.97;93.62;95788.38;4342505;32;20181;-63
2022/09/20 03:26:08;;;;;;;0.23;0.23;;;;;;;9.87;94.08;95791.88;4338998;32;20220;-63
2022/09/20 03:28:56;;;;;;;0.20;0.20;;;;;;;9.93;93.99;95790.00;4357484;32;20192;-61
2022/09/20 03:31:45;;;;;;;0.43;0.43;;;;;;;9.91;94.21;95786.81;4341192;32;20239;-63
2022/09/20 03:34:45;;;;;;;2.00;0.53;;;;;;;9.93;93.79;95780.19;4371915;32;20235;-63
2022/09/20 03:37:50;;;;;;;0.47;0.47;;;;;;;9.95;93.86;95795.81;4380180;32;20172;-63
2022/09/20 03:40:41;;;;;;;0.20;0.20;;;;;;;9.83;93.89;95796.16;4343314;32;20195;-62
2022/09/20 03:43:43;;;;;;;0.17;0.17;;;;;;;9.93;93.67;95792.66;4380628;32;20274;-63
2022/09/20 03:46:45;;;;;;;0.17;0.17;;;;;;;9.68;94.74;95787.53;4350815;32;20216;-63
2022/09/20 03:49:52;;;;;;;0.20;0.20;;;;;;;9.86;94.47;95794.81;4372550;32;20191;-62
2022/09/20 03:53:01;;;;;;;1.20;0.50;;;;;;;9.91;94.29;95789.47;4380204;32;20206;-63
2022/09/20 03:56:15;;;;;;;0.23;0.23;;;;;;;9.80;93.89;95787.94;4386190;32;20227;-63
2022/09/20 03:59:29;;;;;;;0.30;0.30;;;;;;;9.88;93.30;95790.03;4376403;32;20238;-63
2022/09/20 04:02:22;;;;;;;0.63;0.30;;;;;;;9.97;93.05;95786.50;4377044;32;20258;-63
2022/09/20 04:04:54;;;;;;;0.30;0.30;;;;;;;10.01;93.38;95794.69;4419484;32;20184;-63
2022/09/20 04:07:37;;;;;;;0.17;0.17;;;;;;;9.99;93.03;95778.25;4408759;32;20180;-63
2022/09/20 04:10:50;;;;;;;0.67;0.67;;;;;;;10.04;92.65;95790.69;4400571;32;20184;-63
2022/09/20 04:13:35;;;;;;;2.63;0.93;;;;;;;9.82;92.92;95791.91;4311923;33;20197;-62
2022/09/20 04:16:40;;;;;;;0.30;0.30;;;;;;;9.95;92.93;95787.84;4386912;32;20192;-63
2022/09/20 04:19:39;;;;;;;0.27;0.23;;;;;;;10.02;92.67;95803.44;4392308;32;20188;-63
2022/09/20 04:22:12;;;;;;;2.80;0.43;;;;;;;9.96;92.83;95795.53;4386888;32;20188;-63
2022/09/20 04:25:19;;;;;;;0.60;0.40;;;;;;;9.98;92.78;95797.88;4377674;32;20219;-63
2022/09/20 04:28:14;;;;;;;1.17;0.60;;;;;;;10.03;92.35;95811.09;4365241;32;20213;-63
2022/09/20 04:30:47;;;;;;;0.30;0.30;;;;;;;10.02;91.84;95808.72;4390036;32;20309;-63
2022/09/20 04:33:39;;;;;;;0.27;0.27;;;;;;;10.00;92.38;95812.44;4392569;32;20279;-62
2022/09/20 04:36:33;;;;;;;0.87;0.50;;;;;;;9.93;91.97;95813.84;4379836;32;20266;-63
2022/09/20 04:39:28;;;;;;;0.50;0.50;;;;;;;10.02;92.07;95806.88;4393540;32;20230;-63
2022/09/20 04:42:42;;;;;;;0.47;0.47;;;;;;;9.88;91.80;95809.37;4391689;32;20184;-63
2022/09/20 04:45:50;;;;;;;0.23;0.23;;;;;;;9.96;92.05;95811.44;4333381;32;20185;-63
2022/09/20 04:48:56;;;;;;;0.43;0.43;;;;;;;9.93;92.64;95809.34;4344479;32;20181;-63
2022/09/20 04:52:14;;;;;;;0.83;0.47;;;;;;;9.82;92.63;95807.81;4341913;32;20211;-62
2022/09/20 04:55:02;;;;;;;0.40;0.40;;;;;;;9.81;92.51;95818.69;4305642;33;20181;-63
2022/09/20 04:58:07;;;;;;;0.57;0.47;;;;;;;9.69;93.20;95819.03;4293346;33;20189;-62
2022/09/20 05:01:16;;;;;;;1.43;0.60;;;;;;;9.73;93.37;95816.63;4265657;32;20185;-62
2022/09/20 05:03:57;;;;;;;0.93;0.57;;;;;;;9.73;93.03;95812.12;4286601;33;20186;-62
2022/09/20 05:07:12;;;;;;;2.00;0.50;;;;;;;9.83;92.44;95816.56;4329104;32;21740;-63
2022/09/20 05:10:39;;;;;;;0.20;0.20;;;;;;;9.65;93.11;95813.50;4291837;32;20260;-63
2022/09/20 05:13:52;;;;;;;0.57;0.57;;;;;;;9.79;92.74;95820.81;4290484;33;20193;-62
2022/09/20 05:16:40;;;;;;;3.57;1.03;;;;;;;9.75;92.32;95817.16;4334155;32;20221;-63
2022/09/20 05:19:25;;;;;;;0.30;0.30;;;;;;;9.81;92.16;95821.34;4326534;33;20221;-62
2022/09/20 05:22:31;;;;;;;0.70;0.70;;;;;;;9.81;92.14;95823.97;4321082;32;20233;-62
2022/09/20 05:25:50;;;;;;;6.03;0.67;;;;;;;9.76;91.97;95824.84;4332229;32;20188;-62
2022/09/20 05:29:01;;;;;;;1.10;0.93;;;;;;;9.78;91.87;95827.97;4347729;32;20246;-62
2022/09/20 05:31:54;;;;;;;0.63;0.63;;;;;;;9.78;92.31;95830.63;4366825;32;20203;-62
2022/09/20 05:35:18;;;;;;;0.47;0.47;;;;;;;9.78;92.51;95835.12;4381756;32;20239;-62
2022/09/20 05:38:02;;;;;;;2.37;0.73;;;;;;;9.89;92.30;95836.66;4345339;32;20249;-62
2022/09/20 05:41:02;;;;;;;0.40;0.40;;;;;;;9.96;92.32;95837.16;4384338;32;20269;-62
2022/09/20 05:43:34;;;;;;;0.53;0.53;;;;;;;10.08;91.56;95834.94;4391955;32;20202;-62
2022/09/20 05:46:41;;;;;;;0.27;0.27;;;;;;;10.05;91.43;95837.34;4385647;32;20197;-62
2022/09/20 05:49:29;;;;;;;6.53;4.10;;;;;;;10.04;91.04;95833.88;4366722;32;20188;-50
2022/09/20 05:52:24;;;;;;;1.40;1.30;;;;;;;11.31;100.00;95830.78;4378999;32;20188;-53
2022/09/20 05:55:47;;;;;;;0.87;0.87;;;;;;;12.94;100.00;95829.06;4375836;32;20260;-51
2022/09/20 05:58:58;;;;;;;1.23;0.90;;;;;;;13.19;93.89;95835.81;4348100;32;20231;-54
2022/09/20 06:01:56;;;;;;;0.67;0.67;;;;;;;13.96;86.89;95838.41;4348147;32;20252;-53
2022/09/20 06:05:11;;;;;;;1.27;1.17;;;;;;;14.66;88.50;95850.41;4345196;32;20200;-49
2022/09/20 06:08:25;;;;;;;0.83;0.80;;;;;;;15.34;91.62;95851.81;4348336;32;20198;-52
2022/09/20 06:11:16;;;;;;;2.03;1.03;;;;;;;15.60;86.52;95860.69;4396574;32;20225;-54
2022/09/20 06:14:19;;;;;;;0.50;0.50;;;;;;;15.98;84.07;95863.63;4380746;32;20214;-64
2022/09/20 06:17:26;;;;;;;0.40;0.40;;;;;;;14.69;72.59;95857.81;4397994;32;20188;-64
2022/09/20 06:19:57;;;;;;;1.17;1.10;;;;;;;13.04;75.22;95860.84;4400646;32;20192;-63
2022/09/20 06:22:38;;;;;;;0.50;0.50;;;;;;;12.28;78.64;95864.78;4390052;32;20286;-65
2022/09/20 06:25:18;;;;;;;3.37;1.33;;;;;;;11.79;81.43;95865.28;4398762;32;20206;-63
2022/09/20 06:28:00;;;;;;;0.63;0.63;;;;;;;11.27;83.61;95866.16;4371972;32;20285;-64
2022/09/20 06:30:34;;;;;;;0.60;0.60;;;;;;;10.99;85.63;95859.84;4356772;32;20238;-64
2022/09/20 06:33:27;;;;;;;0.80;0.63;;;;;;;10.95;86.16;95875.56;4388652;32;20226;-63
2022/09/20 06:42:18;;;;;;;0.40;0.40;;;;;;;10.64;86.68;95879.56;4392124;32;20230;-63
2022/09/20 06:44:44;;;;;;;1.37;1.07;;;;;;;10.34;88.80;95880.63;4362409;32;20188;-64
2022/09/20 06:47:12;;;;;;;1.17;0.57;;;;;;;10.45;88.93;95883.97;4384285;32;20247;-63
2022/09/20 06:49:41;;;;;;;0.47;0.47;;;;;;;10.41;88.33;95880.28;4354088;32;20189;-63
2022/09/20 06:52:21;;;;;;;0.60;0.60;;;;;;;10.36;88.26;95883.78;4390818;32;20267;-64
2022/09/20 06:54:57;;;;;;;0.30;0.30;;;;;;;10.15;89.01;95872.53;4379778;32;20184;-64
2022/09/20 06:57:36;;;;;;;0.53;0.53;;;;;;;10.27;89.44;95885.44;4377270;32;20234;-63
2022/09/20 07:00:14;;;;;;;0.80;0.80;;;;;;;10.47;89.19;95882.63;4397879;32;20193;-64
2022/09/20 07:02:44;;;;;;;3.80;1.37;;;;;;;10.53;88.97;95886.03;4382912;32;20183;-63
2022/09/20 07:05:21;;;;;;;0.53;0.53;;;;;;;10.59;88.67;95879.63;4389693;32;20246;-64
2022/09/20 07:07:47;;;;;;;0.63;0.63;;;;;;;10.81;87.23;95879.91;4376179;32;20189;-63
2022/09/20 07:10:14;;;;;;;0.73;0.53;;;;;;;10.72;87.94;95881.62;4359721;32;20583;-63
2022/09/20 07:12:45;;;;;;;0.93;0.30;;;;;;;10.65;87.34;95883.78;4387961;32;20196;-63
2022/09/20 07:15:14;;;;;;;0.43;0.43;;;;;;;10.55;88.35;95891.88;4383285;32;20195;-63
2022/09/20 07:17:44;;;;;;;0.93;0.40;;;;;;;10.62;87.98;95881.69;4394999;32;20189;-63
2022/09/20 07:20:10;;;;;;;0.57;0.57;;;;;;;10.62;87.01;95881.69;4349773;32;20190;-63
2022/09/20 07:22:41;;;;;;;7.13;1.30;;;;;;;10.59;87.12;95887.59;4380365;32;20184;-63
2022/09/20 07:25:08;;;;;;;0.60;0.60;;;;;;;10.54;87.39;95882.31;4388199;32;20225;-63
2022/09/20 07:27:36;;;;;;;0.57;0.57;;;;;;;10.56;87.79;95893.44;4381245;32;20207;-62
2022/09/20 07:30:04;;;;;;;0.27;0.27;;;;;;;10.66;86.52;95890.69;4390825;32;20184;-62
2022/09/20 07:32:30;;;;;;;1.70;0.47;;;;;;;10.60;87.03;95891.78;4378956;32;20193;-62
2022/09/20 07:34:55;;;;;;;3.00;1.07;;;;;;;10.76;86.47;95892.47;4389680;32;20188;-62
2022/09/20 07:37:23;;;;;;;0.40;0.40;;;;;;;10.74;86.21;95892.75;4373792;32;20215;-62
2022/09/20 07:39:49;;;;;;;1.47;1.03;;;;;;;10.77;86.17;95894.06;4345469;32;20205;-61
2022/09/20 07:42:16;;;;;;;1.07;0.90;;;;;;;10.67;86.82;95897.59;4360606;32;20307;-62
2022/09/20 07:44:42;;;;;;;0.73;0.73;;;;;;;10.84;86.48;95897.16;4360066;32;20231;-61
2022/09/20 07:47:14;;;;;;;2.63;0.47;;;;;;;10.86;86.76;95897.66;4366943;32;20188;-62
2022/09/20 07:49:41;;;;;;;2.07;0.93;;;;;;;10.83;88.02;95901.66;4369271;32;20195;-62
2022/09/20 07:52:10;;;;;;;0.77;0.77;;;;;;;10.55;89.21;95913.09;4393303;32;20192;-63
2022/09/20 07:54:37;;;;;;;2.57;0.50;;;;;;;10.68;89.94;95909.78;4372937;32;20207;-63
2022/09/20 07:57:08;;;;;;;0.80;0.80;;;;;;;10.59;91.24;95919.44;4346574;32;20195;-62
2022/09/20 07:59:34;;;;;;;1.00;1.00;;;;;;;10.37;94.31;95908.47;4398976;32;20263;-62
2022/09/20 08:02:01;;;;;;;2.93;0.90;;;;;;;10.37;94.28;95916.41;4388105;32;20197;-63
2022/09/20 08:04:28;;;;;;;1.23;0.73;;;;;;;10.51;95.15;95912.84;4403705;32;20196;-62
2022/09/20 08:06:57;;;;;;;0.90;0.90;;;;;;;10.46;95.87;95912.09;4378993;32;20218;-62
2022/09/20 08:09:23;;;;;;;0.60;0.60;;;;;;;10.52;95.94;95916.28;4393099;32;20191;-62
2022/09/20 08:11:49;;;;;;;1.10;1.03;;;;;;;10.64;95.85;95914.06;4362227;32;20196;-62
2022/09/20 08:14:17;;;;;;;0.80;0.80;;;;;;;10.58;95.93;95917.84;4377066;32;20213;-62
2022/09/20 08:17:04;;;;;;;1.50;1.00;;;;;;;10.71;96.32;95911.09;4393015;32;20293;-62
2022/09/20 08:19:31;;;;;;;0.83;0.83;;;;;;;10.72;96.02;95913.47;4384909;32;20192;-62
2022/09/20 08:21:59;;;;;;;1.37;1.27;;;;;;;10.81;94.95;95916.28;4350134;32;20192;-63
2022/09/20 08:24:26;;;;;;;0.77;0.77;;;;;;;10.80;95.08;95915.53;4369954;32;20196;-62
2022/09/20 08:26:51;;;;;;;0.77;0.77;;;;;;;10.84;95.46;95913.88;4373641;32;20184;-62
2022/09/20 08:29:18;;;;;;;0.57;0.57;;;;;;;10.89;95.35;95913.81;4388106;32;20301;-62
2022/09/20 08:31:46;;;;;;;3.17;1.00;;;;;;;10.80;95.75;95912.88;4401247;32;20320;-62
2022/09/20 08:34:17;;;;;;;1.60;1.10;;;;;;;10.91;95.51;95918.84;4387166;32;20232;-62
2022/09/20 08:36:45;;;;;;;1.97;1.87;;;;;;;10.90;95.97;95915.41;4347602;32;20215;-62
2022/09/20 08:39:15;;;;;;;1.13;1.13;;;;;;;10.92;96.56;95918.59;4374241;32;20180;-62
2022/09/20 08:41:55;;;;;;;1.10;1.10;;;;;;;10.84;97.34;95923.69;4383765;32;20288;-62
2022/09/20 08:44:32;;;;;;;0.57;0.57;;;;;;;10.79;97.25;95916.59;4395860;32;20188;-63
2022/09/20 08:47:30;;;;;;;2.27;1.13;;;;;;;10.89;97.47;95916.47;4399643;32;20192;-62
2022/09/20 08:49:59;;;;;;;1.50;1.50;;;;;;;10.93;97.38;95919.38;4285585;33;20186;-63
2022/09/20 08:52:35;;;;;;;1.83;1.33;;;;;;;10.92;97.06;95918.59;4304387;33;20227;-63
2022/09/20 08:55:15;;;;;;;1.27;1.17;;;;;;;10.87;96.67;95923.94;4306911;33;20178;-62
2022/09/20 08:57:42;;;;;;;1.63;1.53;;;;;;;10.80;96.85;95915.53;4287185;33;20241;-62
2022/09/20 09:00:21;;;;;;;2.87;1.43;;;;;;;10.80;96.92;95917.38;4312292;33;20196;-62
2022/09/20 09:02:51;;;;;;;1.30;1.30;;;;;;;10.97;95.58;95915.87;4298913;33;23165;-62
2022/09/20 09:05:45;;;;;;;4.50;2.33;;;;;;;10.98;95.24;95919.34;4326460;32;20304;-62
2022/09/20 09:08:16;;;;;;;0.83;0.83;;;;;;;11.10;94.76;95926.91;4361493;32;20191;-62
2022/09/20 09:10:53;;;;;;;1.20;1.20;;;;;;;10.95;92.34;95926.00;4376343;32;20183;-62
2022/09/20 09:14:03;;;;;;;1.77;1.70;;;;;;;10.95;93.44;95933.97;4399140;32;20203;-62
2022/09/20 09:16:34;;;;;;;1.90;1.20;;;;;;;11.13;93.96;95929.00;4345904;32;20230;-62
2022/09/20 09:19:29;;;;;;;1.43;1.43;;;;;;;10.97;93.61;95931.81;4385822;32;20232;-62
2022/09/20 09:22:08;;;;;;;1.47;1.37;;;;;;;10.92;93.75;95923.09;4393275;32;20248;-63
2022/09/20 09:24:35;;;;;;;1.23;1.03;;;;;;;11.08;93.06;95927.19;4381369;32;20177;-62
2022/09/20 09:27:13;;;;;;;3.07;1.33;;;;;;;11.01;93.03;95922.19;4403722;32;20195;-62
2022/09/20 09:29:54;;;;;;;1.73;1.63;;;;;;;11.11;92.97;95925.84;4384922;32;20211;-62
2022/09/20 09:32:31;;;;;;;2.17;1.43;;;;;;;11.28;92.97;95921.66;4394868;32;20203;-62
2022/09/20 09:35:30;;;;;;;1.93;1.70;;;;;;;11.35;93.05;95910.69;4364883;32;20188;-62
2022/09/20 09:38:01;;;;;;;0.63;0.63;;;;;;;11.26;93.26;95915.03;4372202;32;20188;-62
2022/09/20 09:40:30;;;;;;;1.20;1.17;;;;;;;11.28;92.79;95916.34;4396458;32;20262;-62
2022/09/20 09:43:03;;;;;;;0.80;0.77;;;;;;;11.41;92.65;95912.25;4369511;32;20191;-62
2022/09/20 09:45:39;;;;;;;6.10;1.10;;;;;;;11.38;91.77;95912.00;4402333;32;20237;-62
2022/09/20 09:48:33;;;;;;;2.00;1.70;;;;;;;11.51;90.52;95906.78;4411572;32;20200;-62
2022/09/20 09:51:19;;;;;;;0.40;0.40;;;;;;;11.57;89.70;95908.31;4392222;32;20180;-62
2022/09/20 09:53:48;;;;;;;0.70;0.70;;;;;;;11.67;88.52;95905.50;4406595;32;20282;-62
2022/09/20 09:56:56;;;;;;;0.60;0.60;;;;;;;11.64;89.11;95907.94;4394237;32;20259;-63
2022/09/20 09:59:41;;;;;;;0.70;0.70;;;;;;;11.58;86.37;95909.09;4347894;32;20290;-62
2022/09/20 10:02:51;;;;;;;3.40;0.97;;;;;;;11.55;87.11;95907.81;4369272;32;20246;-62
2022/09/20 10:05:27;;;;;;;0.87;0.87;;;;;;;11.64;87.04;95919.38;4392460;32;20233;-62
2022/09/20 10:08:30;;;;;;;0.63;0.63;;;;;;;11.56;85.87;95914.72;4379226;32;20270;-62
2022/09/20 10:11:32;;;;;;;0.67;0.67;;;;;;;11.76;82.45;95896.91;4390190;32;20259;-62
2022/09/20 10:14:35;;;;;;;1.10;1.10;;;;;;;11.99;83.95;95909.41;4355880;32;20180;-62
2022/09/20 10:17:33;;;;;;;1.17;0.67;;;;;;;12.05;83.44;95913.56;4400881;32;20245;-62
2022/09/20 10:20:27;;;;;;;0.93;0.93;;;;;;;11.93;83.67;95906.00;4373177;32;20359;-62
2022/09/20 10:23:18;;;;;;;0.40;0.40;;;;;;;11.92;81.95;95909.75;4369342;32;20185;-62
2022/09/20 10:26:05;;;;;;;0.40;0.40;;;;;;;11.95;78.82;95909.19;4404881;32;20202;-62
2022/09/20 10:28:49;;;;;;;1.20;0.70;;;;;;;11.93;77.08;95903.34;4358372;32;20184;-62
2022/09/20 10:31:56;;;;;;;1.17;1.07;;;;;;;11.97;79.29;95899.06;4365339;32;20184;-62
2022/09/20 10:34:54;;;;;;;0.63;0.63;;;;;;;12.04;81.03;95906.69;4387884;32;20183;-62
2022/09/20 10:37:42;;;;;;;0.60;0.60;;;;;;;12.08;80.77;95906.88;4281907;33;20194;-62
2022/09/20 10:40:22;;;;;;;0.77;0.77;;;;;;;12.03;81.82;95903.22;4394422;32;20184;-62
2022/09/20 10:43:16;;;;;;;1.60;0.93;;;;;;;11.92;81.05;95901.78;4398226;32;21307;-62
2022/09/20 10:45:59;;;;;;;0.57;0.57;;;;;;;11.92;79.49;95898.31;4393669;32;20305;-62
2022/09/20 10:48:53;;;;;;;1.30;0.90;;;;;;;12.21;78.01;95901.63;4360958;32;20200;-62
2022/09/20 10:52:01;;;;;;;0.57;0.57;;;;;;;12.29;79.80;95897.50;4367068;32;20222;-62
2022/09/20 10:55:02;;;;;;;0.30;0.30;;;;;;;12.21;78.16;95898.19;4378995;32;20180;-61
2022/09/20 10:57:46;;;;;;;0.60;0.60;;;;;;;12.22;76.63;95907.75;4412341;32;20187;-63
2022/09/20 11:00:34;;;;;;;0.37;0.37;;;;;;;12.28;77.86;95904.69;4390480;32;20230;-62
2022/09/20 11:03:38;;;;;;;0.60;0.60;;;;;;;12.13;79.34;95907.59;4382222;32;20227;-62
2022/09/20 11:06:52;;;;;;;2.30;0.53;;;;;;;12.21;77.60;95904.28;4373381;32;20188;-62
2022/09/20 11:09:29;;;;;;;2.53;0.60;;;;;;;12.16;75.69;95907.03;4360608;32;20219;-62
2022/09/20 11:12:57;;;;;;;0.40;0.40;;;;;;;11.88;79.29;95898.09;4377586;32;20188;-62
2022/09/20 11:15:48;;;;;;;0.50;0.50;;;;;;;11.87;78.15;95903.69;4259233;33;20190;-62
2022/09/20 11:18:42;;;;;;;0.67;0.67;;;;;;;11.76;78.69;95904.91;4293893;33;20311;-62
2022/09/20 11:21:36;;;;;;;0.30;0.30;;;;;;;11.89;78.90;95898.88;4304202;33;20186;-62
2022/09/20 11:24:41;;;;;;;2.10;0.40;;;;;;;11.94;78.42;95912.91;4371891;32;20185;-62
2022/09/20 11:27:25;;;;;;;2.20;0.67;;;;;;;11.94;78.11;95917.44;4393680;32;20219;-62
2022/09/20 11:30:00;;;;;;;0.87;0.87;;;;;;;11.93;77.68;95908.66;4385850;32;20255;-62
2022/09/20 11:32:37;;;;;;;0.80;0.50;;;;;;;11.84;77.32;95914.94;4382805;32;20188;-62
2022/09/20 11:35:39;;;;;;;0.50;0.50;;;;;;;11.96;78.29;95910.75;4386027;32;20183;-62
2022/09/20 11:38:24;;;;;;;0.40;0.40;;;;;;;11.98;76.65;95918.44;4375824;32;20214;-62
2022/09/20 11:41:06;;;;;;;2.53;0.77;;;;;;;12.22;76.43;95918.38;4356665;32;20184;-62
2022/09/20 11:43:37;;;;;;;2.23;0.73;;;;;;;12.21;75.03;95914.16;4361439;32;20284;-61
2022/09/20 11:46:08;;;;;;;1.60;0.77;;;;;;;12.30;74.74;95909.72;4373244;32;20204;-62
2022/09/20 11:49:17;;;;;;;0.20;0.20;;;;;;;12.44;73.87;95904.50;4348305;32;20233;-62
2022/09/20 11:52:05;;;;;;;0.40;0.40;;;;;;;12.52;73.75;95901.94;4398091;32;20211;-62
2022/09/20 11:54:54;;;;;;;0.30;0.30;;;;;;;12.44;71.61;95901.81;4382749;32;20252;-62
2022/09/20 11:57:22;;;;;;;0.73;0.73;;;;;;;12.48;72.11;95895.59;4390192;32;20253;-62
2022/09/20 12:00:02;;;;;;;0.53;0.53;;;;;;;12.68;70.46;95902.47;4357463;32;20324;-62
2022/09/20 12:03:20;;;;;;;1.70;0.90;;;;;;;12.66;70.20;95897.47;4348120;32;20192;-62
2022/09/20 12:06:06;;;;;;;1.70;0.87;;;;;;;12.76;71.47;95901.81;4382087;32;20255;-62
2022/09/20 12:08:38;;;;;;;0.20;0.20;;;;;;;12.89;68.84;95903.72;4385804;32;20246;-62
2022/09/20 12:11:12;;;;;;;0.50;0.50;;;;;;;12.92;67.49;95895.13;4389830;32;20263;-62
2022/09/20 12:13:40;;;;;;;0.30;0.30;;;;;;;12.80;65.99;95894.03;4397473;32;20184;-61
2022/09/20 12:16:14;;;;;;;0.30;0.30;;;;;;;12.96;69.35;95888.16;4374928;32;20214;-62
2022/09/20 12:18:58;;;;;;;0.37;0.37;;;;;;;12.85;68.41;95896.62;4379637;32;20213;-62
2022/09/20 12:21:26;;;;;;;0.60;0.60;;;;;;;12.79;69.07;95893.25;4385372;32;20185;-62
2022/09/20 12:23:54;;;;;;;0.57;0.57;;;;;;;12.91;68.25;95888.22;4374168;32;20194;-62
2022/09/20 12:26:36;;;;;;;0.30;0.30;;;;;;;13.06;68.58;95887.97;4382932;32;20177;-62
2022/09/20 12:29:31;;;;;;;1.57;1.03;;;;;;;13.03;68.75;95890.44;4394393;32;20295;-62
2022/09/20 12:32:39;;;;;;;0.50;0.50;;;;;;;12.98;67.69;95880.66;4378528;32;20214;-62
2022/09/20 12:35:38;;;;;;;0.20;0.20;;;;;;;13.09;70.14;95878.59;4329493;32;20200;-62
2022/09/20 12:38:30;;;;;;;3.17;1.93;;;;;;;12.99;69.28;95876.13;4388692;32;20193;-62
2022/09/20 12:40:59;;;;;;;1.27;1.27;;;;;;;12.96;67.12;95874.81;4375675;32;20198;-63
2022/09/20 12:43:29;;;;;;;1.33;0.70;;;;;;;13.00;67.79;95867.03;4399935;32;20188;-62
2022/09/20 12:45:56;;;;;;;3.23;1.00;;;;;;;12.93;68.51;95871.97;4373875;32;20188;-62
2022/09/20 12:48:23;;;;;;;0.97;0.97;;;;;;;13.08;67.48;95866.38;4347746;32;20233;-62
2022/09/20 12:54:15;;;;;;;0.40;0.40;;;;;;;13.09;66.64;95862.63;4378461;32;20305;-62
2022/09/20 12:56:45;;;;;;;1.57;1.47;;;;;;;12.82;64.49;95865.25;4378098;32;20239;-63
2022/09/20 12:59:30;;;;;;;2.50;1.40;;;;;;;12.85;68.59;95862.00;4381936;32;20184;-63
2022/09/20 13:01:55;;;;;;;0.73;0.73;;;;;;;12.81;68.04;95863.66;4396148;32;20200;-64
2022/09/20 13:04:54;;;;;;;0.30;0.30;;;;;;;12.91;66.06;95860.81;4396368;32;20199;-63
2022/09/20 13:07:47;;;;;;;0.10;0.10;;;;;;;12.92;65.56;95870.37;4388709;32;20207;-62
2022/09/20 13:10:28;;;;;;;3.83;0.70;;;;;;;12.75;64.96;95857.63;4397373;32;20203;-62
2022/09/20 13:13:03;;;;;;;2.00;0.67;;;;;;;12.91;68.11;95866.12;4399216;32;20232;-62
2022/09/20 13:15:34;;;;;;;0.53;0.53;;;;;;;12.87;65.55;95868.63;4343205;32;20229;-64